Time;durP1;ratioP1;P1;durP2;ratioP2;P2;SDS_P1;SDS_P2;PMS_P1;PMS_P2;Temp;Humidity;BMP_temperature;BMP_pressure;BME280_temperature;BME280_humidity;BME280_pressure;Samples;Min_cycle;Max_cycle;Signal;HPM_P1;HPM_P2
2022/04/01 00:00:41;;;;;;;5.10;2.72;;;;;;;;;;4909908;29;20302;-69
2022/04/01 00:03:07;;;;;;;4.82;2.67;;;;;;;;;;4910929;29;20044;-65
2022/04/01 00:05:35;;;;;;;10.77;3.53;;;;;;;;;;4911861;29;20046;-66
2022/04/01 00:08:02;;;;;;;8.50;2.85;;;;;;;;;;4912215;29;20115;-69
2022/04/01 00:10:29;;;;;;;9.13;2.92;;;;;;;;;;4912018;29;20064;-66
2022/04/01 00:12:55;;;;;;;7.93;2.53;;;;;;;;;;4911857;29;20146;-67
2022/04/01 00:15:21;;;;;;;5.30;2.30;;;;;;;;;;4909731;29;20075;-67
2022/04/01 00:17:47;;;;;;;4.88;2.45;;;;;;;;;;4904059;29;20056;-67
2022/04/01 00:20:13;;;;;;;6.43;2.42;;;;;;;;;;4911367;29;20048;-72
2022/04/01 00:22:42;;;;;;;9.30;2.58;;;;;;;;;;4912844;29;20055;-66
2022/04/01 00:25:09;;;;;;;7.05;2.70;;;;;;;;;;4912587;29;20044;-66
2022/04/01 00:27:35;;;;;;;10.85;2.63;;;;;;;;;;4910859;29;20044;-66
2022/04/01 00:30:01;;;;;;;6.10;2.80;;;;;;;;;;4910871;29;20058;-67
2022/04/01 00:32:29;;;;;;;3.33;2.22;;;;;;;;;;4909298;29;20059;-68
2022/04/01 00:34:54;;;;;;;5.20;2.25;;;;;;;;;;4911342;29;20174;-70
2022/04/01 00:37:20;;;;;;;9.10;2.40;;;;;;;;;;4911252;29;20080;-68
2022/04/01 00:39:46;;;;;;;4.63;2.63;;;;;;;;;;4911827;29;20086;-65
2022/04/01 00:42:13;;;;;;;4.55;2.45;;;;;;;;;;4896849;29;20052;-65
2022/04/01 00:44:40;;;;;;;7.63;2.50;;;;;;;;;;4911234;29;20043;-67
2022/04/01 00:47:14;;;;;;;11.13;2.38;;;;;;;;;;4910829;29;20066;-69
2022/04/01 00:49:42;;;;;;;5.35;2.05;;;;;;;;;;4911604;29;20139;-68
2022/04/01 00:52:12;;;;;;;6.97;2.28;;;;;;;;;;4910099;29;20055;-66
2022/04/01 00:54:38;;;;;;;8.32;2.55;;;;;;;;;;4911116;29;20055;-67
2022/04/01 00:57:06;;;;;;;6.10;2.63;;;;;;;;;;4911171;29;20127;-67
2022/04/01 00:59:35;;;;;;;7.38;2.80;;;;;;;;;;4910766;29;20047;-66
2022/04/01 01:02:01;;;;;;;5.55;2.67;;;;;;;;;;4907752;29;20488;-68
2022/04/01 01:04:27;;;;;;;6.55;2.65;;;;;;;;;;4903841;29;20139;-69
2022/04/01 01:06:56;;;;;;;7.00;2.80;;;;;;;;;;4910090;29;20059;-65
2022/04/01 01:09:23;;;;;;;6.78;2.60;;;;;;;;;;4911343;29;20504;-65
2022/04/01 01:11:52;;;;;;;4.97;2.58;;;;;;;;;;4909221;29;20070;-67
2022/04/01 01:14:24;;;;;;;9.60;3.05;;;;;;;;;;4909310;29;20048;-69
2022/04/01 01:16:50;;;;;;;4.88;2.50;;;;;;;;;;4907459;29;20087;-69
2022/04/01 01:19:17;;;;;;;6.10;2.47;;;;;;;;;;4907943;29;20494;-65
2022/04/01 01:21:48;;;;;;;5.28;2.80;;;;;;;;;;4907192;29;20130;-67
2022/04/01 01:24:17;;;;;;;7.72;3.03;;;;;;;;;;4911910;29;20059;-65
2022/04/01 01:26:54;;;;;;;6.00;2.05;;;;;;;;;;4909637;29;20067;-65
2022/04/01 01:29:28;;;;;;;6.82;2.78;;;;;;;;;;4910994;29;20199;-69
2022/04/01 01:31:59;;;;;;;6.90;2.80;;;;;;;;;;4908603;29;20111;-69
2022/04/01 01:34:27;;;;;;;5.18;2.60;;;;;;;;;;4909075;29;20056;-65
2022/04/01 01:36:53;;;;;;;6.63;3.00;;;;;;;;;;4911326;29;20044;-66
2022/04/01 01:39:20;;;;;;;6.57;2.78;;;;;;;;;;4907956;29;20048;-68
2022/04/01 01:41:49;;;;;;;9.43;2.75;;;;;;;;;;4911803;29;20048;-69
2022/04/01 01:44:19;;;;;;;10.13;3.17;;;;;;;;;;4911509;29;20091;-67
2022/04/01 01:46:45;;;;;;;8.38;3.20;;;;;;;;;;4909119;29;20048;-66
2022/04/01 01:49:11;;;;;;;7.07;3.10;;;;;;;;;;4909416;29;20510;-66
2022/04/01 01:54:44;;;;;;;5.60;2.97;;;;;;;;;;4909555;29;20040;-65
2022/04/01 01:57:15;;;;;;;10.35;2.83;;;;;;;;;;4909266;29;20467;-70
2022/04/01 01:59:42;;;;;;;10.18;3.33;;;;;;;;;;4908157;29;20130;-69
2022/04/01 02:02:09;;;;;;;6.45;3.30;;;;;;;;;;4904509;29;20056;-67
2022/04/01 02:04:36;;;;;;;7.32;3.15;;;;;;;;;;4907543;29;20064;-65
2022/04/01 02:07:03;;;;;;;7.03;3.05;;;;;;;;;;4905726;29;20036;-66
2022/04/01 02:09:30;;;;;;;6.95;3.03;;;;;;;;;;4908520;29;20512;-66
2022/04/01 02:11:56;;;;;;;6.35;3.13;;;;;;;;;;4909416;29;20071;-69
2022/04/01 02:14:22;;;;;;;5.57;3.08;;;;;;;;;;4903593;29;20382;-65
2022/04/01 02:16:48;;;;;;;7.32;3.30;;;;;;;;;;4909811;29;20048;-69
2022/04/01 02:19:20;;;;;;;6.78;3.25;;;;;;;;;;4904682;29;20071;-66
2022/04/01 02:21:48;;;;;;;8.50;3.63;;;;;;;;;;4906892;29;20044;-65
2022/04/01 02:24:15;;;;;;;7.53;3.70;;;;;;;;;;4906621;29;20103;-66
2022/04/01 02:26:40;;;;;;;6.15;3.22;;;;;;;;;;4907206;29;20548;-67
2022/04/01 02:29:08;;;;;;;6.30;2.92;;;;;;;;;;4910867;29;20048;-65
2022/04/01 02:31:33;;;;;;;6.75;2.70;;;;;;;;;;4909529;29;20055;-66
2022/04/01 02:33:59;;;;;;;9.23;3.70;;;;;;;;;;4909495;29;20056;-66
2022/04/01 02:36:25;;;;;;;13.65;3.97;;;;;;;;;;4907886;29;20561;-65
2022/04/01 02:38:53;;;;;;;6.28;3.30;;;;;;;;;;4910286;29;20139;-69
2022/04/01 02:41:19;;;;;;;7.90;3.00;;;;;;;;;;4909958;29;20420;-65
2022/04/01 02:43:45;;;;;;;7.90;3.30;;;;;;;;;;4910714;29;20474;-66
2022/04/01 02:46:11;;;;;;;8.15;3.28;;;;;;;;;;4908330;29;20054;-65
2022/04/01 02:48:37;;;;;;;11.20;3.33;;;;;;;;;;4909031;29;20051;-66
2022/04/01 02:51:03;;;;;;;7.78;3.42;;;;;;;;;;4909758;29;20506;-67
2022/04/01 02:53:28;;;;;;;6.00;3.00;;;;;;;;;;4906354;29;20083;-67
2022/04/01 02:55:54;;;;;;;8.07;3.58;;;;;;;;;;4906288;29;20378;-66
2022/04/01 02:58:20;;;;;;;9.13;3.25;;;;;;;;;;4910257;29;20482;-66
2022/04/01 03:00:46;;;;;;;8.45;3.10;;;;;;;;;;4907585;29;20059;-66
2022/04/01 03:03:12;;;;;;;7.82;3.47;;;;;;;;;;4908389;29;20498;-67
2022/04/01 03:05:42;;;;;;;6.82;3.30;;;;;;;;;;4907566;29;20079;-65
2022/04/01 03:08:09;;;;;;;7.38;3.20;;;;;;;;;;4910415;29;20048;-65
2022/04/01 03:10:38;;;;;;;7.18;3.50;;;;;;;;;;4902040;29;20095;-67
2022/04/01 03:13:07;;;;;;;7.60;3.17;;;;;;;;;;4899277;29;20050;-65
2022/04/01 03:15:33;;;;;;;9.07;3.72;;;;;;;;;;4910008;29;20052;-66
2022/04/01 03:17:59;;;;;;;6.10;3.38;;;;;;;;;;4910000;29;20059;-66
2022/04/01 03:20:26;;;;;;;6.18;3.25;;;;;;;;;;4912685;29;20254;-70
2022/04/01 03:22:57;;;;;;;6.32;3.10;;;;;;;;;;4912802;29;20052;-68
2022/04/01 03:25:23;;;;;;;9.02;3.50;;;;;;;;;;4911617;29;20052;-65
2022/04/01 03:27:49;;;;;;;9.40;3.25;;;;;;;;;;4913388;29;20352;-67
2022/04/01 03:30:17;;;;;;;7.05;3.10;;;;;;;;;;4908891;29;20051;-65
2022/04/01 03:32:43;;;;;;;6.57;3.47;;;;;;;;;;4908150;29;20047;-66
2022/04/01 03:35:14;;;;;;;5.93;3.20;;;;;;;;;;4911098;29;20050;-69
2022/04/01 03:37:41;;;;;;;5.20;2.80;;;;;;;;;;4913287;29;20063;-64
2022/04/01 03:40:08;;;;;;;4.57;2.78;;;;;;;;;;4911893;29;20048;-66
2022/04/01 03:42:35;;;;;;;6.47;3.17;;;;;;;;;;4909725;29;20056;-65
2022/04/01 03:45:03;;;;;;;7.72;3.50;;;;;;;;;;4911464;29;20099;-71
2022/04/01 03:47:44;;;;;;;5.15;2.95;;;;;;;;;;4905889;29;20063;-67
2022/04/01 03:50:12;;;;;;;7.40;3.22;;;;;;;;;;4906176;29;20458;-65
2022/04/01 03:52:39;;;;;;;10.27;3.33;;;;;;;;;;4907045;29;20048;-65
2022/04/01 03:55:09;;;;;;;9.40;3.80;;;;;;;;;;4904529;29;20564;-65
2022/04/01 03:57:38;;;;;;;5.65;3.40;;;;;;;;;;4909287;29;20432;-67
2022/04/01 04:00:07;;;;;;;9.15;3.20;;;;;;;;;;4912165;29;20048;-67
2022/04/01 04:02:34;;;;;;;8.82;3.58;;;;;;;;;;4905062;29;20044;-67
2022/04/01 04:05:01;;;;;;;9.00;3.70;;;;;;;;;;4909982;29;20056;-69
2022/04/01 04:07:29;;;;;;;5.63;4.03;;;;;;;;;;4912642;29;20412;-65
2022/04/01 04:09:56;;;;;;;5.93;3.58;;;;;;;;;;4912343;29;20529;-69
2022/04/01 04:12:23;;;;;;;7.35;3.97;;;;;;;;;;4912955;29;20040;-69
2022/04/01 04:14:53;;;;;;;9.82;4.00;;;;;;;;;;4912218;29;20124;-65
2022/04/01 04:17:30;;;;;;;7.85;3.78;;;;;;;;;;4912688;29;20489;-65
2022/04/01 04:19:56;;;;;;;8.68;3.33;;;;;;;;;;4908813;29;20079;-65
2022/04/01 04:22:45;;;;;;;8.18;3.50;;;;;;;;;;4911692;29;20116;-66
2022/04/01 04:25:14;;;;;;;7.63;3.80;;;;;;;;;;4906084;29;20513;-65
2022/04/01 04:28:00;;;;;;;8.75;3.38;;;;;;;;;;4910791;29;20047;-65
2022/04/01 04:30:48;;;;;;;7.47;3.65;;;;;;;;;;4909822;29;20118;-67
2022/04/01 04:33:17;;;;;;;6.25;3.67;;;;;;;;;;4910922;29;20046;-65
2022/04/01 04:35:48;;;;;;;6.32;3.45;;;;;;;;;;4879776;29;20132;-68
2022/04/01 04:38:16;;;;;;;8.93;3.38;;;;;;;;;;4895613;29;20048;-67
2022/04/01 04:40:43;;;;;;;7.80;2.80;;;;;;;;;;4902674;29;20056;-65
2022/04/01 04:43:10;;;;;;;6.32;3.00;;;;;;;;;;4904045;29;20056;-65
2022/04/01 04:45:38;;;;;;;8.18;3.08;;;;;;;;;;4902519;29;20550;-64
2022/04/01 04:48:04;;;;;;;6.93;3.25;;;;;;;;;;4898303;29;20048;-68
2022/04/01 04:50:32;;;;;;;5.50;2.80;;;;;;;;;;4896044;29;20052;-69
2022/04/01 04:52:57;;;;;;;7.18;2.90;;;;;;;;;;4904547;29;20048;-66
2022/04/01 04:55:24;;;;;;;4.30;2.47;;;;;;;;;;4903371;29;20047;-67
2022/04/01 04:57:53;;;;;;;5.93;2.60;;;;;;;;;;4902745;29;20123;-68
2022/04/01 05:00:20;;;;;;;6.80;3.10;;;;;;;;;;4903204;29;20506;-69
2022/04/01 05:03:15;;;;;;;6.50;3.05;;;;;;;;;;4903031;29;20079;-71
2022/04/01 05:05:51;;;;;;;5.63;2.70;;;;;;;;;;4893090;29;20088;-69
2022/04/01 05:08:36;;;;;;;5.55;2.30;;;;;;;;;;4902957;29;20509;-68
2022/04/01 05:11:02;;;;;;;6.70;2.08;;;;;;;;;;4903369;29;20056;-66
2022/04/01 05:13:47;;;;;;;4.20;1.88;;;;;;;;;;4899728;29;20131;-66
2022/04/01 05:16:25;;;;;;;;;;;;;;;;;;4902105;29;20393;-65
2022/04/01 05:19:01;;;;;;;3.15;1.55;;;;;;;;;;4900744;29;19929;-67
2022/04/01 05:21:47;;;;;;;5.25;1.50;;;;;;;;;;4901359;29;20044;-69
2022/04/01 05:24:15;;;;;;;3.63;1.27;;;;;;;;;;4902293;29;20052;-68
2022/04/01 05:26:43;;;;;;;4.57;1.40;;;;;;;;;;4902067;29;20562;-67
2022/04/01 05:29:26;;;;;;;2.97;1.90;;;;;;;;;;4903065;29;20059;-68
2022/04/01 05:32:03;;;;;;;2.63;1.60;;;;;;;;;;4903534;29;20060;-65
2022/04/01 05:34:38;;;;;;;2.50;1.40;;;;;;;;;;4898043;29;20043;-67
2022/04/01 05:37:05;;;;;;;3.45;1.30;;;;;;;;;;4903349;29;20056;-68
2022/04/01 05:39:34;;;;;;;1.17;0.80;;;;;;;;;;4903548;29;20056;-66
2022/04/01 05:42:01;;;;;;;2.42;1.15;;;;;;;;;;4902260;29;20051;-66
2022/04/01 05:44:29;;;;;;;1.15;0.82;;;;;;;;;;4903543;29;20055;-68
2022/04/01 05:46:56;;;;;;;1.70;0.70;;;;;;;;;;4898346;29;20063;-68
2022/04/01 05:49:25;;;;;;;2.53;0.70;;;;;;;;;;4903728;29;20044;-67
2022/04/01 05:51:52;;;;;;;1.48;0.70;;;;;;;;;;4902382;29;20052;-66
2022/04/01 05:54:19;;;;;;;1.98;0.60;;;;;;;;;;4902109;29;20052;-69
2022/04/01 05:56:47;;;;;;;3.30;0.73;;;;;;;;;;4901416;29;20067;-68
2022/04/01 05:59:16;;;;;;;0.75;0.60;;;;;;;;;;4902849;29;20516;-65
2022/04/01 06:01:48;;;;;;;0.90;0.50;;;;;;;;;;4895137;29;20095;-66
2022/04/01 06:04:48;;;;;;;1.85;0.50;;;;;;;;;;4900723;29;20072;-67
2022/04/01 06:07:31;;;;;;;0.70;0.40;;;;;;;;;;4902997;29;20090;-69
2022/04/01 06:10:07;;;;;;;1.30;0.32;;;;;;;;;;4902648;29;20095;-67
2022/04/01 06:13:15;;;;;;;1.73;0.57;;;;;;;;;;4901932;29;20510;-67
2022/04/01 06:15:50;;;;;;;1.80;0.57;;;;;;;;;;4899977;29;20078;-70
2022/04/01 06:18:53;;;;;;;1.67;0.60;;;;;;;;;;4902052;29;20430;-71
2022/04/01 06:21:24;;;;;;;4.93;0.68;;;;;;;;;;4902543;29;20056;-69
2022/04/01 06:24:10;;;;;;;0.47;0.40;;;;;;;;;;4903096;29;20044;-70
2022/04/01 06:26:47;;;;;;;2.33;0.75;;;;;;;;;;4901204;29;21048;-66
2022/04/01 06:29:30;;;;;;;4.97;0.60;;;;;;;;;;4900459;29;20106;-67
2022/04/01 06:32:08;;;;;;;0.70;0.40;;;;;;;;;;4896500;29;20052;-72
2022/04/01 06:34:49;;;;;;;2.20;0.40;;;;;;;;;;4895654;29;20055;-69
2022/04/01 06:37:29;;;;;;;5.78;0.60;;;;;;;;;;4901943;29;20103;-69
2022/04/01 06:40:05;;;;;;;0.98;0.50;;;;;;;;;;4901653;29;20048;-68
2022/04/01 06:42:37;;;;;;;3.75;0.52;;;;;;;;;;4900864;29;20056;-68
2022/04/01 06:45:08;;;;;;;0.70;0.63;;;;;;;;;;4900072;29;20163;-69
2022/04/01 06:47:35;;;;;;;1.33;0.60;;;;;;;;;;4900511;29;20055;-63
2022/04/01 06:50:02;;;;;;;2.80;0.50;;;;;;;;;;4900500;29;20122;-68
2022/04/01 06:52:28;;;;;;;2.47;1.40;;;;;;;;;;4897945;29;20060;-68
2022/04/01 06:54:54;;;;;;;1.05;0.60;;;;;;;;;;4902639;29;20624;-68
2022/04/01 06:57:21;;;;;;;1.15;0.65;;;;;;;;;;4900671;29;20051;-69
2022/04/01 06:59:46;;;;;;;2.95;0.77;;;;;;;;;;4896077;29;20142;-66
2022/04/01 07:02:12;;;;;;;1.80;0.65;;;;;;;;;;4901155;29;20155;-67
2022/04/01 07:04:38;;;;;;;1.25;0.63;;;;;;;;;;4900006;29;20502;-68
2022/04/01 07:07:04;;;;;;;9.43;0.80;;;;;;;;;;4898785;29;20048;-69
2022/04/01 07:09:30;;;;;;;3.80;0.60;;;;;;;;;;4902452;29;20088;-67
2022/04/01 07:11:59;;;;;;;6.07;1.00;;;;;;;;;;4902614;29;20127;-65
2022/04/01 07:14:27;;;;;;;1.60;0.60;;;;;;;;;;4900318;29;20048;-68
2022/04/01 07:17:00;;;;;;;1.77;0.52;;;;;;;;;;4902599;29;20044;-68
2022/04/01 07:19:26;;;;;;;2.38;0.68;;;;;;;;;;4900216;29;20506;-70
2022/04/01 07:21:52;;;;;;;2.30;0.70;;;;;;;;;;4897722;29;20059;-71
2022/04/01 07:24:18;;;;;;;2.88;0.90;;;;;;;;;;4896387;29;20657;-67
2022/04/01 07:26:45;;;;;;;1.80;0.88;;;;;;;;;;4901378;29;20570;-69
2022/04/01 07:29:12;;;;;;;2.50;0.75;;;;;;;;;;4902245;29;20833;-69
2022/04/01 07:34:35;;;;;;;2.05;0.73;;;;;;;;;;4899398;29;20497;-71
2022/04/01 07:37:02;;;;;;;2.42;0.82;;;;;;;;;;4900769;29;20048;-69
2022/04/01 07:39:28;;;;;;;16.20;2.20;;;;;;;;;;4899119;29;20095;-71
2022/04/01 07:41:54;;;;;;;15.55;1.45;;;;;;;;;;4903858;29;20049;-71
2022/04/01 07:44:22;;;;;;;3.42;0.70;;;;;;;;;;4900667;29;20056;-73
2022/04/01 07:46:51;;;;;;;4.95;0.90;;;;;;;;;;4901823;29;20271;-69
2022/04/01 07:49:18;;;;;;;2.35;0.90;;;;;;;;;;4901110;29;20092;-70
2022/04/01 07:51:45;;;;;;;4.00;0.85;;;;;;;;;;4901675;29;20225;-71
2022/04/01 07:54:12;;;;;;;8.35;1.30;;;;;;;;;;4899720;29;20044;-67
2022/04/01 07:56:40;;;;;;;2.80;0.80;;;;;;;;;;4901846;29;20056;-72
2022/04/01 07:59:07;;;;;;;2.47;0.70;;;;;;;;;;4903143;29;20457;-69
2022/04/01 08:01:34;;;;;;;4.72;1.10;;;;;;;;;;4901297;29;20143;-72
2022/04/01 08:04:00;;;;;;;4.15;1.05;;;;;;;;;;4905180;29;20048;-68
2022/04/01 08:06:26;;;;;;;3.20;0.82;;;;;;;;;;4904618;29;20060;-71
2022/04/01 08:08:55;;;;;;;3.90;0.80;;;;;;;;;;4903080;29;20528;-72
2022/04/01 08:11:23;;;;;;;1.63;0.73;;;;;;;;;;4904603;29;20056;-69
2022/04/01 08:13:49;;;;;;;2.15;0.80;;;;;;;;;;4903829;29;20060;-67
2022/04/01 08:16:15;;;;;;;3.30;1.00;;;;;;;;;;4900588;29;20058;-71
2022/04/01 08:18:41;;;;;;;1.92;0.60;;;;;;;;;;4901892;29;20159;-71
2022/04/01 08:21:07;;;;;;;3.10;0.75;;;;;;;;;;4901539;29;20055;-74
2022/04/01 08:23:35;;;;;;;1.70;0.80;;;;;;;;;;4894988;29;20075;-70
2022/04/01 08:26:04;;;;;;;2.10;0.73;;;;;;;;;;4900604;29;20051;-68
2022/04/01 08:28:30;;;;;;;6.13;0.70;;;;;;;;;;4901276;29;20047;-71
2022/04/01 08:30:56;;;;;;;2.42;0.70;;;;;;;;;;4899629;29;20048;-72
2022/04/01 08:33:23;;;;;;;4.40;0.80;;;;;;;;;;4902885;29;20052;-71
2022/04/01 08:35:49;;;;;;;5.05;0.85;;;;;;;;;;4902987;29;20437;-72
2022/04/01 08:38:15;;;;;;;4.28;0.60;;;;;;;;;;4902473;29;20585;-72
2022/04/01 08:40:42;;;;;;;1.25;0.65;;;;;;;;;;4901563;29;20087;-68
2022/04/01 08:43:08;;;;;;;4.75;0.80;;;;;;;;;;4900172;29;20052;-70
2022/04/01 08:45:37;;;;;;;2.75;1.02;;;;;;;;;;4897292;29;20700;-71
2022/04/01 08:48:11;;;;;;;3.08;1.13;;;;;;;;;;4898365;29;20052;-72
2022/04/01 08:50:40;;;;;;;;;;;;;;;;;;4898015;29;20164;-67
2022/04/01 08:53:06;;;;;;;9.38;1.40;;;;;;;;;;4902702;29;19930;-74
2022/04/01 08:55:32;;;;;;;3.00;0.70;;;;;;;;;;4898016;29;20056;-70
2022/04/01 08:57:57;;;;;;;5.43;0.80;;;;;;;;;;4900581;29;20398;-69
2022/04/01 09:00:24;;;;;;;1.40;0.52;;;;;;;;;;4902446;29;20180;-70
2022/04/01 09:03:21;;;;;;;4.22;1.00;;;;;;;;;;4900827;29;20052;-72
2022/04/01 09:05:52;;;;;;;2.75;0.70;;;;;;;;;;4892804;29;20509;-72
2022/04/01 09:08:39;;;;;;;3.42;0.80;;;;;;;;;;4900447;29;20056;-71
2022/04/01 09:11:08;;;;;;;1.33;0.70;;;;;;;;;;4901259;29;20056;-71
2022/04/01 09:13:50;;;;;;;1.13;0.77;;;;;;;;;;4902267;29;20067;-69
2022/04/01 09:16:32;;;;;;;1.38;0.75;;;;;;;;;;4898908;29;20163;-71
2022/04/01 09:19:00;;;;;;;4.35;0.82;;;;;;;;;;4899698;29;20040;-71
2022/04/01 09:21:31;;;;;;;1.15;0.63;;;;;;;;;;4898631;29;20052;-73
2022/04/01 09:23:58;;;;;;;1.80;0.70;;;;;;;;;;4900802;29;20176;-73
2022/04/01 09:26:34;;;;;;;2.67;0.75;;;;;;;;;;4894840;29;20512;-72
2022/04/01 09:29:00;;;;;;;2.83;1.00;;;;;;;;;;4902259;29;20072;-70
2022/04/01 09:31:31;;;;;;;3.63;0.80;;;;;;;;;;4904118;29;20064;-72
2022/04/01 09:33:58;;;;;;;4.80;1.23;;;;;;;;;;4900593;29;20044;-72
2022/04/01 09:36:38;;;;;;;2.08;0.80;;;;;;;;;;4903314;29;20081;-70
2022/04/01 09:39:10;;;;;;;2.60;0.70;;;;;;;;;;4902321;29;20114;-72
2022/04/01 09:41:38;;;;;;;2.20;0.70;;;;;;;;;;4900092;29;20524;-71
2022/04/01 09:44:07;;;;;;;3.70;1.02;;;;;;;;;;4900735;29;20874;-71
2022/04/01 09:46:34;;;;;;;4.38;1.00;;;;;;;;;;4901738;29;20064;-69
2022/04/01 09:49:01;;;;;;;2.03;0.70;;;;;;;;;;4901041;29;20052;-73
2022/04/01 09:51:32;;;;;;;2.80;0.70;;;;;;;;;;4900603;29;20540;-74
2022/04/01 09:54:02;;;;;;;1.02;0.60;;;;;;;;;;4902299;29;20183;-71
2022/04/01 09:56:45;;;;;;;2.38;0.70;;;;;;;;;;4901479;29;20062;-73
2022/04/01 09:59:13;;;;;;;2.10;0.90;;;;;;;;;;4901581;29;20119;-71
2022/04/01 10:01:41;;;;;;;5.68;0.88;;;;;;;;;;4900566;29;20063;-71
2022/04/01 10:04:09;;;;;;;3.45;0.80;;;;;;;;;;4899432;29;20044;-71
2022/04/01 10:06:36;;;;;;;5.03;1.15;;;;;;;;;;4883427;29;20068;-71
2022/04/01 10:09:08;;;;;;;1.75;0.70;;;;;;;;;;4903796;29;20052;-70
2022/04/01 10:11:37;;;;;;;1.58;0.90;;;;;;;;;;4902702;29;20514;-71
2022/04/01 10:14:08;;;;;;;4.20;1.05;;;;;;;;;;4902267;29;20490;-71
2022/04/01 10:16:35;;;;;;;3.55;0.75;;;;;;;;;;4882007;29;20060;-70
2022/04/01 10:19:06;;;;;;;4.50;1.00;;;;;;;;;;4902930;29;20044;-70
2022/04/01 10:21:34;;;;;;;1.92;0.80;;;;;;;;;;4900558;29;20056;-71
2022/04/01 10:24:44;;;;;;;3.38;0.80;;;;;;;;;;4902389;29;20050;-71
2022/04/01 10:27:16;;;;;;;3.70;1.08;;;;;;;;;;4904145;29;20051;-71
2022/04/01 10:29:44;;;;;;;1.85;0.82;;;;;;;;;;4904787;29;20142;-69
2022/04/01 10:32:41;;;;;;;1.92;0.70;;;;;;;;;;4901440;29;20284;-68
2022/04/01 10:35:21;;;;;;;5.13;0.80;;;;;;;;;;4892794;29;20059;-69
2022/04/01 10:37:52;;;;;;;4.97;0.82;;;;;;;;;;4899847;29;20107;-72
2022/04/01 10:40:18;;;;;;;4.95;0.85;;;;;;;;;;4901459;29;20106;-70
2022/04/01 10:42:46;;;;;;;3.15;0.90;;;;;;;;;;4902616;29;20060;-72
2022/04/01 10:45:15;;;;;;;4.13;0.73;;;;;;;;;;4899787;29;20103;-73
2022/04/01 10:53:52;;;;;;;2.20;0.70;;;;;;;;;;4904797;29;20505;-73
2022/04/01 10:56:23;;;;;;;8.50;0.90;;;;;;;;;;4902444;29;20066;-73
2022/04/01 10:59:05;;;;;;;2.28;0.80;;;;;;;;;;4900987;29;20127;-70
2022/04/01 11:01:32;;;;;;;3.85;1.48;;;;;;;;;;4901928;29;20492;-68
2022/04/01 11:04:21;;;;;;;1.95;0.68;;;;;;;;;;4902083;29;20055;-70
2022/04/01 11:07:01;;;;;;;3.08;0.65;;;;;;;;;;4897569;29;20130;-69
2022/04/01 11:09:47;;;;;;;1.98;0.80;;;;;;;;;;4903547;29;20469;-69
2022/04/01 11:12:19;;;;;;;2.60;0.70;;;;;;;;;;4903116;29;20052;-69
2022/04/01 11:15:03;;;;;;;3.53;0.98;;;;;;;;;;4902832;29;20119;-71
2022/04/01 11:17:55;;;;;;;1.57;0.70;;;;;;;;;;4901060;29;20060;-72
2022/04/01 11:20:32;;;;;;;2.42;0.93;;;;;;;;;;4900737;29;20176;-71
2022/04/01 11:23:01;;;;;;;1.95;1.00;;;;;;;;;;4901257;29;20059;-69
2022/04/01 11:25:33;;;;;;;3.20;0.73;;;;;;;;;;4901392;29;20060;-71
2022/04/01 11:27:58;;;;;;;4.60;0.90;;;;;;;;;;4897514;29;20067;-70
2022/04/01 11:30:29;;;;;;;3.65;0.60;;;;;;;;;;4903112;29;20052;-69
2022/04/01 11:33:07;;;;;;;4.10;1.25;;;;;;;;;;4901618;29;20075;-69
2022/04/01 11:35:39;;;;;;;3.65;0.90;;;;;;;;;;4901967;29;20568;-72
2022/04/01 11:38:14;;;;;;;2.55;1.25;;;;;;;;;;4905958;29;20079;-69
2022/04/01 11:40:41;;;;;;;3.92;0.98;;;;;;;;;;4906527;29;20082;-72
2022/04/01 11:43:12;;;;;;;4.28;1.38;;;;;;;;;;4905276;29;20071;-69
2022/04/01 11:45:47;;;;;;;2.60;1.02;;;;;;;;;;4906306;29;20063;-71
2022/04/01 11:48:17;;;;;;;3.40;1.05;;;;;;;;;;4905041;29;20291;-69
2022/04/01 11:50:55;;;;;;;1.35;0.73;;;;;;;;;;4907234;29;20358;-68
2022/04/01 11:53:23;;;;;;;3.40;0.93;;;;;;;;;;4906498;29;20052;-69
2022/04/01 11:55:49;;;;;;;4.63;1.55;;;;;;;;;;4907419;29;20068;-71
2022/04/01 11:58:16;;;;;;;2.42;0.98;;;;;;;;;;4903604;29;20456;-71
2022/04/01 12:00:42;;;;;;;3.47;1.10;;;;;;;;;;4906579;29;20048;-68
2022/04/01 12:03:09;;;;;;;2.42;1.08;;;;;;;;;;4906849;29;20056;-73
2022/04/01 12:05:36;;;;;;;2.05;0.80;;;;;;;;;;4905134;29;20056;-72
2022/04/01 12:10:56;;;;;;;8.68;1.20;;;;;;;;;;4904146;29;20055;-71
2022/04/01 12:13:24;;;;;;;1.67;0.77;;;;;;;;;;4907372;29;20076;-67
2022/04/01 12:15:52;;;;;;;5.25;1.35;;;;;;;;;;4902324;29;20402;-69
2022/04/01 12:18:20;;;;;;;3.85;1.08;;;;;;;;;;4903177;29;20056;-69
2022/04/01 12:20:54;;;;;;;2.28;0.73;;;;;;;;;;4903573;29;20464;-68
2022/04/01 12:23:21;;;;;;;;;;;;;;;;;;4904886;29;20059;-67
2022/04/01 12:25:51;;;;;;;2.15;1.30;;;;;;;;;;4905509;29;19931;-72
2022/04/01 12:28:20;;;;;;;4.45;1.42;;;;;;;;;;4901352;29;20135;-72
2022/04/01 12:30:51;;;;;;;2.80;1.10;;;;;;;;;;4903547;29;20892;-71
2022/04/01 12:33:19;;;;;;;3.35;1.30;;;;;;;;;;4905909;29;20048;-70
2022/04/01 12:35:59;;;;;;;5.43;1.40;;;;;;;;;;4905500;29;20471;-69
2022/04/01 12:38:26;;;;;;;3.22;1.00;;;;;;;;;;4903926;29;20144;-68
2022/04/01 12:40:55;;;;;;;2.65;0.95;;;;;;;;;;4906070;29;20095;-69
2022/04/01 12:43:38;;;;;;;7.82;1.15;;;;;;;;;;4905909;29;20084;-72
2022/04/01 12:46:04;;;;;;;4.45;1.17;;;;;;;;;;4905100;29;20052;-71
2022/04/01 12:48:39;;;;;;;3.45;1.30;;;;;;;;;;4902500;29;20416;-69
2022/04/01 12:51:05;;;;;;;5.18;1.40;;;;;;;;;;4906597;29;20048;-70
2022/04/01 12:53:31;;;;;;;2.38;1.10;;;;;;;;;;4896207;29;20206;-68
2022/04/01 12:56:18;;;;;;;5.53;1.75;;;;;;;;;;4900764;29;20048;-72
2022/04/01 12:58:50;;;;;;;2.88;1.00;;;;;;;;;;4905643;29;20111;-72
2022/04/01 13:01:27;;;;;;;2.53;1.27;;;;;;;;;;4905989;29;20433;-70
2022/04/01 13:03:56;;;;;;;4.72;1.33;;;;;;;;;;4903363;29;20103;-70
2022/04/01 13:06:25;;;;;;;2.33;1.30;;;;;;;;;;4903208;29;20529;-70
2022/04/01 13:09:09;;;;;;;6.63;1.25;;;;;;;;;;4902103;29;20044;-72
2022/04/01 13:11:43;;;;;;;2.92;1.48;;;;;;;;;;4904135;29;20646;-71
2022/04/01 13:14:26;;;;;;;5.75;1.30;;;;;;;;;;4904240;29;20052;-69
2022/04/01 13:16:54;;;;;;;1.73;1.20;;;;;;;;;;4898991;29;20490;-68
2022/04/01 13:19:32;;;;;;;3.83;1.25;;;;;;;;;;4904052;29;20497;-72
2022/04/01 13:22:04;;;;;;;3.08;1.00;;;;;;;;;;4904127;29;20075;-70
2022/04/01 13:24:42;;;;;;;3.08;1.33;;;;;;;;;;4902771;29;20414;-70
2022/04/01 13:27:11;;;;;;;2.60;1.20;;;;;;;;;;4903566;29;20127;-67
2022/04/01 13:29:41;;;;;;;2.72;1.30;;;;;;;;;;4902049;29;20071;-70
2022/04/01 13:32:08;;;;;;;4.22;1.70;;;;;;;;;;4901174;29;20155;-73
2022/04/01 13:34:35;;;;;;;3.30;1.40;;;;;;;;;;4902951;29;20519;-70
2022/04/01 13:37:01;;;;;;;2.53;1.50;;;;;;;;;;4901926;29;20064;-71
2022/04/01 13:39:30;;;;;;;3.40;1.70;;;;;;;;;;4902811;29;20063;-75
2022/04/01 13:41:59;;;;;;;5.25;1.58;;;;;;;;;;4904035;29;20867;-72
2022/04/01 13:44:27;;;;;;;2.25;1.23;;;;;;;;;;4902327;29;20055;-73
2022/04/01 13:46:53;;;;;;;1.60;1.10;;;;;;;;;;4903278;29;20059;-74
2022/04/01 13:49:19;;;;;;;5.35;1.35;;;;;;;;;;4901432;29;21142;-74
2022/04/01 13:51:46;;;;;;;4.20;1.55;;;;;;;;;;4897561;29;20581;-73
2022/04/01 13:54:13;;;;;;;1.77;1.08;;;;;;;;;;4899215;29;20258;-73
2022/04/01 13:56:38;;;;;;;3.03;1.70;;;;;;;;;;4904762;29;20060;-72
2022/04/01 13:59:08;;;;;;;6.18;1.42;;;;;;;;;;4900211;29;21465;-73
2022/04/01 14:01:35;;;;;;;2.83;1.13;;;;;;;;;;4902155;29;20051;-72
2022/04/01 14:04:01;;;;;;;3.05;1.23;;;;;;;;;;4901049;29;20052;-75
2022/04/01 14:06:28;;;;;;;6.53;1.73;;;;;;;;;;4900542;29;20083;-72
2022/04/01 14:08:54;;;;;;;4.72;1.33;;;;;;;;;;4904092;29;20056;-74
2022/04/01 14:11:21;;;;;;;2.42;1.02;;;;;;;;;;4903487;29;20052;-72
2022/04/01 14:13:48;;;;;;;5.18;1.30;;;;;;;;;;4897923;29;20056;-73
2022/04/01 14:16:15;;;;;;;2.97;0.90;;;;;;;;;;4900385;29;20043;-71
2022/04/01 14:18:41;;;;;;;4.75;1.30;;;;;;;;;;4900475;29;20062;-74
2022/04/01 14:21:07;;;;;;;5.28;1.52;;;;;;;;;;4896896;29;24415;-72
2022/04/01 14:23:35;;;;;;;3.75;1.73;;;;;;;;;;4897491;29;20064;-76
2022/04/01 14:26:06;;;;;;;4.10;1.20;;;;;;;;;;4901439;29;20422;-73
2022/04/01 14:28:33;;;;;;;3.05;1.30;;;;;;;;;;4900798;29;20048;-70
2022/04/01 14:31:01;;;;;;;7.15;1.48;;;;;;;;;;4901808;29;20064;-70
2022/04/01 14:33:28;;;;;;;3.22;1.30;;;;;;;;;;4900613;29;20048;-74
2022/04/01 14:35:54;;;;;;;2.58;1.40;;;;;;;;;;4901171;29;20525;-74
2022/04/01 14:38:23;;;;;;;3.63;1.30;;;;;;;;;;4900879;29;20040;-75
2022/04/01 14:40:51;;;;;;;3.83;1.42;;;;;;;;;;4900145;29;20086;-74
2022/04/01 14:43:17;;;;;;;3.10;1.30;;;;;;;;;;4898924;29;20080;-74
2022/04/01 14:45:45;;;;;;;3.22;1.40;;;;;;;;;;4898638;29;20051;-72
2022/04/01 14:48:11;;;;;;;3.08;1.60;;;;;;;;;;4900749;29;20044;-73
2022/04/01 14:50:37;;;;;;;4.75;1.23;;;;;;;;;;4897108;29;20066;-74
2022/04/01 14:53:05;;;;;;;2.92;1.35;;;;;;;;;;4904757;29;20040;-77
2022/04/01 14:55:32;;;;;;;2.75;1.30;;;;;;;;;;4896716;29;20492;-75
2022/04/01 14:57:58;;;;;;;2.78;1.48;;;;;;;;;;4906522;29;20052;-80
2022/04/01 15:00:24;;;;;;;2.72;1.58;;;;;;;;;;4905883;29;20044;-73
2022/04/01 15:02:50;;;;;;;4.18;1.38;;;;;;;;;;4903922;29;20075;-75
2022/04/01 15:05:16;;;;;;;2.75;1.40;;;;;;;;;;4905003;29;20056;-74
2022/04/01 15:07:44;;;;;;;1.48;1.15;;;;;;;;;;4904170;29;20092;-72
2022/04/01 15:10:10;;;;;;;6.20;1.48;;;;;;;;;;4905009;29;20060;-77
2022/04/01 15:12:37;;;;;;;5.15;1.45;;;;;;;;;;4904548;29;20048;-84
2022/04/01 15:15:04;;;;;;;3.50;1.35;;;;;;;;;;4904487;29;20073;-70